createdAt,value
2023-03-16T00:01:37.165Z,98204.97
2023-03-16T00:04:03.512Z,98210.28
2023-03-16T00:06:29.826Z,98206.63
2023-03-16T00:08:56.109Z,98212.31
2023-03-16T00:11:22.457Z,98209.47
2023-03-16T00:13:48.759Z,98211.16
2023-03-16T00:16:15.130Z,98215.22
2023-03-16T00:18:41.536Z,98227.25
2023-03-16T00:21:08.006Z,98213.81
2023-03-16T00:23:35.344Z,98213.63
2023-03-16T00:26:01.666Z,98213.22
2023-03-16T00:28:28.019Z,98205.91
2023-03-16T00:30:54.359Z,98202.25
2023-03-16T00:33:20.743Z,98212.06
2023-03-16T00:35:47.221Z,98203.28
2023-03-16T00:38:13.727Z,98210.44
2023-03-16T00:40:39.968Z,98215.53
2023-03-16T00:43:06.353Z,98210.84
2023-03-16T00:45:32.829Z,98209.63
2023-03-16T00:47:59.206Z,98209.41
2023-03-16T00:50:25.975Z,98210.84
2023-03-16T00:52:52.508Z,98208.81
2023-03-16T00:55:19.208Z,98207.59
2023-03-16T00:57:45.556Z,98204.56
2023-03-16T01:00:12.081Z,98206.78
2023-03-16T01:02:38.490Z,98203.94
2023-03-16T01:05:04.798Z,98200.88
2023-03-16T01:07:31.265Z,98200.66
2023-03-16T01:09:57.655Z,98210.03
2023-03-16T01:12:24.020Z,98206.13
2023-03-16T01:14:50.304Z,98203.88
2023-03-16T01:17:16.690Z,98204.28
2023-03-16T01:19:43.281Z,98204.69
2023-03-16T01:22:09.576Z,98200.63
2023-03-16T01:24:35.949Z,98203.66
2023-03-16T01:27:02.386Z,98200.41
2023-03-16T01:29:28.691Z,98198.97
2023-03-16T01:31:55.138Z,98191.25
2023-03-16T01:34:21.465Z,98196.13
2023-03-16T01:36:47.863Z,98180.03
2023-03-16T01:39:14.137Z,98177.81
2023-03-16T01:41:40.439Z,98173.72
2023-03-16T01:44:06.737Z,98184.50
2023-03-16T01:46:33.231Z,98169.84
2023-03-16T01:48:59.585Z,98169.22
2023-03-16T01:51:25.869Z,98168.81
2023-03-16T01:53:52.150Z,98171.03
2023-03-16T01:56:18.392Z,98180.19
2023-03-16T01:58:44.746Z,98167.38
2023-03-16T02:01:11.141Z,98171.22
2023-03-16T02:03:37.749Z,98178.53
2023-03-16T02:06:04.149Z,98178.94
2023-03-16T02:08:31.270Z,98177.69
2023-03-16T02:10:57.699Z,98170.19
2023-03-16T02:13:24.011Z,98173.03
2023-03-16T02:15:50.563Z,98172.41
2023-03-16T02:18:16.957Z,98171.78
2023-03-16T02:20:43.294Z,98177.88
2023-03-16T02:23:09.637Z,98175.66
2023-03-16T02:25:36.024Z,98181.09
2023-03-16T02:28:02.444Z,98176.84
2023-03-16T02:30:29.053Z,98167.47
2023-03-16T02:32:55.621Z,98169.31
2023-03-16T02:35:22.015Z,98167.88
2023-03-16T02:37:48.489Z,98153.84
2023-03-16T02:40:14.899Z,98156.88
2023-03-16T02:42:41.229Z,98150.97
2023-03-16T02:45:07.515Z,98145.09
2023-03-16T02:47:35.076Z,98146.31
2023-03-16T02:50:01.379Z,98143.88
2023-03-16T02:52:27.722Z,98136.34
2023-03-16T02:54:54.032Z,98134.06
2023-03-16T02:57:20.313Z,98128.34
2023-03-16T02:59:46.633Z,98131.22
2023-03-16T03:02:12.954Z,98125.31
2023-03-16T03:04:39.277Z,98134.47
2023-03-16T03:07:05.580Z,98134.66
2023-03-16T03:09:31.900Z,98129.75
2023-03-16T03:11:58.260Z,98111.66
2023-03-16T03:14:24.556Z,98114.72
2023-03-16T03:16:50.873Z,98121.38
2023-03-16T03:19:17.168Z,98119.13
2023-03-16T03:21:43.633Z,98118.72
2023-03-16T03:24:09.895Z,98117.25
2023-03-16T03:26:36.161Z,98114.00
2023-03-16T03:29:02.446Z,98116.00
2023-03-16T03:31:28.778Z,98118.03
2023-03-16T03:33:55.218Z,98116.38
2023-03-16T03:36:21.536Z,98117.59
2023-03-16T03:38:47.767Z,98115.16
2023-03-16T03:41:13.996Z,98127.72
2023-03-16T03:43:40.331Z,98124.47
2023-03-16T03:46:06.642Z,98123.03
2023-03-16T03:48:33.136Z,98116.31
2023-03-16T03:50:59.584Z,98117.50
2023-03-16T03:53:27.043Z,98126.66
2023-03-16T03:55:53.618Z,98127.00
2023-03-16T03:58:20.102Z,98126.41
2023-03-16T04:00:46.461Z,98124.16
2023-03-16T04:03:12.912Z,98134.06
2023-03-16T04:05:39.260Z,98123.91
2023-03-16T04:08:05.657Z,98131.19
2023-03-16T04:10:31.944Z,98123.47
2023-03-16T04:12:58.218Z,98125.50
2023-03-16T04:15:24.632Z,98119.78
2023-03-16T04:17:50.924Z,98127.09
2023-03-16T04:20:17.228Z,98122.19
2023-03-16T04:22:43.506Z,98118.91
2023-03-16T04:25:11.532Z,98129.47
2023-03-16T04:27:38.495Z,98130.69
2023-03-16T04:30:04.926Z,98128.25
2023-03-16T04:32:31.234Z,98127.63
2023-03-16T04:34:57.616Z,98133.28
2023-03-16T04:37:24.117Z,98140.38
2023-03-16T04:39:50.458Z,98133.63
2023-03-16T04:42:16.739Z,98133.00
2023-03-16T04:44:43.032Z,98127.13
2023-03-16T04:47:09.473Z,98126.31
2023-03-16T04:49:35.786Z,98125.69
2023-03-16T04:52:02.170Z,98133.78
2023-03-16T04:54:28.545Z,98127.88
2023-03-16T04:56:54.833Z,98123.81
2023-03-16T04:59:21.113Z,98124.00
2023-03-16T05:01:47.503Z,98118.13
2023-03-16T05:04:19.160Z,98122.13
2023-03-16T05:06:45.951Z,98117.06
2023-03-16T05:09:12.198Z,98118.25
2023-03-16T05:11:38.460Z,98111.34
2023-03-16T05:14:04.760Z,98116.81
2023-03-16T05:16:31.133Z,98116.19
2023-03-16T05:18:57.750Z,98115.56
2023-03-16T05:21:24.042Z,98106.19
2023-03-16T05:23:50.353Z,98119.56
2023-03-16T05:26:16.638Z,98118.94
2023-03-16T05:28:43.216Z,98121.75
2023-03-16T05:31:09.528Z,98125.41
2023-03-16T05:33:35.821Z,98123.75
2023-03-16T05:36:02.165Z,98127.41
2023-03-16T05:38:28.448Z,98132.69
2023-03-16T05:40:54.751Z,98141.59
2023-03-16T05:43:20.988Z,98139.97
2023-03-16T05:45:47.348Z,98143.59
2023-03-16T05:48:13.649Z,98130.63
2023-03-16T05:50:40.048Z,98143.97
2023-03-16T05:53:06.329Z,98140.72
2023-03-16T05:55:32.599Z,98139.91
2023-03-16T05:57:58.841Z,98141.91
2023-03-16T06:00:25.204Z,98138.34
2023-03-16T06:02:51.604Z,98135.25
2023-03-16T06:05:17.981Z,98134.72
2023-03-16T06:07:44.268Z,98127.13
2023-03-16T06:10:10.700Z,98131.88
2023-03-16T06:12:37.017Z,98124.28
2023-03-16T06:15:03.421Z,98121.91
2023-03-16T06:17:29.693Z,98124.38
2023-03-16T06:19:56.113Z,98129.75
2023-03-16T06:22:22.561Z,98118.72
2023-03-16T06:24:48.893Z,98123.03
2023-03-16T06:27:15.170Z,98116.16
2023-03-16T06:29:41.475Z,98112.78
2023-03-16T06:32:07.775Z,98119.81
2023-03-16T06:34:36.268Z,98122.91
2023-03-16T06:37:03.973Z,98124.78
2023-03-16T06:39:30.363Z,98121.72
2023-03-16T06:41:56.669Z,98113.19
2023-03-16T06:44:23.015Z,98108.75
2023-03-16T06:46:49.367Z,98114.13
2023-03-16T06:49:15.660Z,98111.53
2023-03-16T06:51:42.052Z,98108.06
2023-03-16T06:54:08.385Z,98110.63
2023-03-16T06:56:34.700Z,98102.69
2023-03-16T06:59:00.964Z,98109.44
2023-03-16T07:01:27.398Z,98104.94
2023-03-16T07:03:53.972Z,98101.81
2023-03-16T07:06:20.397Z,98103.09
2023-03-16T07:08:46.910Z,98103.69
2023-03-16T07:11:13.243Z,98106.00
2023-03-16T07:13:39.551Z,98104.72
2023-03-16T07:16:05.866Z,98107.38
2023-03-16T07:18:32.243Z,98112.50
2023-03-16T07:20:58.805Z,98116.28
2023-03-16T07:23:25.155Z,98124.16
2023-03-16T07:25:51.486Z,98127.53
2023-03-16T07:28:19.096Z,98120.22
2023-03-16T07:31:00.223Z,98130.81
2023-03-16T07:33:29.289Z,98130.22
2023-03-16T07:35:55.677Z,98139.72
2023-03-16T07:38:22.099Z,98138.00
2023-03-16T07:40:48.403Z,98143.19
2023-03-16T07:43:14.759Z,98134.03
2023-03-16T07:45:41.137Z,98137.38
2023-03-16T07:48:07.485Z,98147.91
2023-03-16T07:50:33.800Z,98140.94
2023-03-16T07:53:00.188Z,98142.97
2023-03-16T07:55:26.825Z,98144.94
2023-03-16T07:57:53.133Z,98150.13
2023-03-16T08:00:19.472Z,98142.84
2023-03-16T08:02:46.192Z,98145.44
2023-03-16T08:05:12.631Z,98148.78
2023-03-16T08:07:38.967Z,98152.59
2023-03-16T08:10:05.274Z,98145.41
2023-03-16T08:12:31.654Z,98142.03
2023-03-16T08:14:57.960Z,98148.78
2023-03-16T08:17:24.372Z,98135.75
2023-03-16T08:19:50.884Z,98143.75
2023-03-16T08:22:17.464Z,98132.06
2023-03-16T08:24:43.842Z,98136.97
2023-03-16T08:27:10.631Z,98137.81
2023-03-16T08:29:37.000Z,98142.00
2023-03-16T08:32:03.397Z,98157.44
2023-03-16T08:34:29.752Z,98147.34
2023-03-16T08:36:56.296Z,98152.75
2023-03-16T08:39:23.987Z,98142.84
2023-03-16T08:41:50.294Z,98145.34
2023-03-16T08:44:16.612Z,98156.78
2023-03-16T08:46:43.085Z,98145.22
2023-03-16T08:49:09.500Z,98135.00
2023-03-16T08:51:35.843Z,98140.00
2023-03-16T08:54:02.382Z,98144.91
2023-03-16T08:56:28.854Z,98143.59
2023-03-16T08:58:55.510Z,98136.03
2023-03-16T09:01:22.502Z,98137.91
2023-03-16T09:03:49.208Z,98127.66
2023-03-16T09:06:16.031Z,98123.59
2023-03-16T09:08:42.398Z,98125.72
2023-03-16T09:11:08.656Z,98116.53
2023-03-16T09:13:34.962Z,98116.94
2023-03-16T09:16:01.638Z,98113.81
2023-03-16T09:18:27.944Z,98117.38
2023-03-16T09:20:54.364Z,98108.53
2023-03-16T09:23:21.014Z,98106.53
2023-03-16T09:25:47.374Z,98104.13
2023-03-16T09:28:13.681Z,98112.94
2023-03-16T09:30:40.120Z,98111.19
2023-03-16T09:33:06.626Z,98103.34
2023-03-16T09:35:35.020Z,98109.28
2023-03-16T09:38:06.519Z,98095.63
2023-03-16T09:40:33.238Z,98103.56
2023-03-16T09:42:59.509Z,98106.53
2023-03-16T09:45:25.815Z,98109.28
2023-03-16T09:47:52.088Z,98108.63
2023-03-16T09:50:18.438Z,98102.19
2023-03-16T09:52:44.777Z,98105.16
2023-03-16T09:55:11.092Z,98097.78
2023-03-16T09:57:37.427Z,98094.09
2023-03-16T10:00:03.688Z,98086.53
2023-03-16T10:02:30.038Z,98089.31
2023-03-16T10:04:56.351Z,98085.03
2023-03-16T10:07:22.704Z,98081.50
2023-03-16T10:09:49.028Z,98077.72
2023-03-16T10:12:15.380Z,98081.34
2023-03-16T10:14:41.731Z,98084.41
2023-03-16T10:17:08.217Z,98078.66
2023-03-16T10:19:34.622Z,98081.97
2023-03-16T10:22:01.367Z,98077.25
2023-03-16T10:24:28.062Z,98071.97
2023-03-16T10:26:56.315Z,98066.09
2023-03-16T10:29:22.772Z,98072.59
2023-03-16T10:31:49.140Z,98073.69
2023-03-16T10:34:15.669Z,98068.63
2023-03-16T10:36:42.077Z,98072.44
2023-03-16T10:39:08.433Z,98073.56
2023-03-16T10:41:34.734Z,98065.84
2023-03-16T10:44:01.016Z,98063.47
2023-03-16T10:46:27.716Z,98050.66
2023-03-16T10:48:54.205Z,98057.16
2023-03-16T10:51:20.512Z,98054.78
2023-03-16T10:53:46.785Z,98057.75
2023-03-16T10:56:13.159Z,98057.25
2023-03-16T10:58:39.473Z,98054.91
2023-03-16T11:01:05.838Z,98058.09
2023-03-16T11:03:32.314Z,98049.25
2023-03-16T11:05:58.619Z,98051.06
2023-03-16T11:08:25.005Z,98057.16
2023-03-16T11:10:55.878Z,98056.94
2023-03-16T11:13:22.402Z,98049.72
2023-03-16T11:15:48.739Z,98048.19
2023-03-16T11:18:15.062Z,98049.78
2023-03-16T11:20:41.475Z,98047.44
2023-03-16T11:23:07.828Z,98042.94
2023-03-16T11:25:34.344Z,98045.19
2023-03-16T11:28:00.615Z,98049.84
2023-03-16T11:30:26.929Z,98040.84
2023-03-16T11:32:53.606Z,98038.34
2023-03-16T11:35:19.978Z,98028.59
2023-03-16T11:37:46.328Z,98030.28
2023-03-16T11:40:12.624Z,98015.47
2023-03-16T11:42:39.007Z,98010.50
2023-03-16T11:45:05.322Z,98006.94
2023-03-16T11:47:32.735Z,98002.31
2023-03-16T11:49:59.092Z,97997.47
2023-03-16T11:52:25.508Z,97990.75
2023-03-16T11:54:52.087Z,97994.69
2023-03-16T11:57:18.397Z,98000.50
2023-03-16T11:59:51.987Z,97991.94
2023-03-16T12:02:25.900Z,97996.06
2023-03-16T12:04:52.324Z,97974.44
2023-03-16T12:07:18.643Z,97996.66
2023-03-16T12:09:45.012Z,97998.78
2023-03-16T12:12:11.271Z,98001.13
2023-03-16T12:14:37.793Z,97986.06
2023-03-16T12:17:04.239Z,97990.78
2023-03-16T12:19:30.715Z,97984.44
2023-03-16T12:21:57.080Z,97986.53
2023-03-16T12:24:23.403Z,97984.22
2023-03-16T12:26:49.737Z,97984.13
2023-03-16T12:29:16.076Z,97971.38
2023-03-16T12:31:42.534Z,97977.25
2023-03-16T12:34:08.988Z,97968.72
2023-03-16T12:36:35.277Z,97951.59
2023-03-16T12:39:01.726Z,97953.44
2023-03-16T12:41:28.053Z,97949.41
2023-03-16T12:43:54.435Z,97946.16
2023-03-16T12:46:20.733Z,97949.03
2023-03-16T12:48:47.240Z,97948.31
2023-03-16T12:51:13.512Z,97945.06
2023-03-16T12:53:39.842Z,97944.72
2023-03-16T12:56:06.151Z,97936.97
2023-03-16T12:58:33.018Z,97931.78
2023-03-16T13:00:59.371Z,97920.44
2023-03-16T13:03:25.770Z,97927.00
2023-03-16T13:05:52.125Z,97931.97
2023-03-16T13:08:18.436Z,97927.13
2023-03-16T13:10:44.792Z,97926.06
2023-03-16T13:13:11.342Z,97923.63
2023-03-16T13:15:37.797Z,97914.84
2023-03-16T13:18:04.273Z,97914.06
2023-03-16T13:20:31.949Z,97923.28
2023-03-16T13:22:58.601Z,97910.47
2023-03-16T13:25:25.004Z,97919.03
2023-03-16T13:27:51.361Z,97914.47
2023-03-16T13:30:17.793Z,97906.81
2023-03-16T13:32:44.129Z,97904.09
2023-03-16T13:35:10.492Z,97900.00
2023-03-16T13:37:36.846Z,97901.59
2023-03-16T13:40:03.158Z,97888.78
2023-03-16T13:42:29.933Z,97890.56
2023-03-16T13:44:56.259Z,97876.63
2023-03-16T13:47:22.598Z,97875.19
2023-03-16T13:49:49.084Z,97868.09
2023-03-16T13:52:15.432Z,97872.44
2023-03-16T13:54:41.722Z,97865.09
2023-03-16T13:57:08.117Z,97862.50
2023-03-16T13:59:34.419Z,97857.75
2023-03-16T14:02:00.840Z,97857.81
2023-03-16T14:04:27.185Z,97853.31
2023-03-16T14:06:53.563Z,97850.38
2023-03-16T14:09:19.886Z,97837.63
2023-03-16T14:11:46.383Z,97826.94
2023-03-16T14:14:12.738Z,97824.84
2023-03-16T14:16:39.011Z,97828.88
2023-03-16T14:19:05.303Z,97831.84
2023-03-16T14:21:31.786Z,97822.56
2023-03-16T14:23:58.129Z,97817.56
2023-03-16T14:26:24.489Z,97810.16
2023-03-16T14:28:50.872Z,97808.84
2023-03-16T14:31:17.239Z,97806.75
2023-03-16T14:33:43.558Z,97819.81
2023-03-16T14:36:13.136Z,97809.72
2023-03-16T14:38:39.499Z,97813.19
2023-03-16T14:41:05.825Z,97812.13
2023-03-16T14:43:32.222Z,97810.28
2023-03-16T14:45:58.574Z,97814.31
2023-03-16T14:48:25.073Z,97808.19
2023-03-16T14:50:51.442Z,97800.19
2023-03-16T14:53:17.721Z,97788.69
2023-03-16T14:55:44.073Z,97787.09
2023-03-16T14:58:10.495Z,97780.94
2023-03-16T15:00:50.205Z,97792.66
2023-03-16T15:03:18.874Z,97793.47
2023-03-16T15:05:45.302Z,97788.13
2023-03-16T15:08:11.613Z,97790.78
2023-03-16T15:10:37.958Z,97794.28
2023-03-16T15:13:07.744Z,97797.97
2023-03-16T15:15:34.252Z,97786.28
2023-03-16T15:18:01.106Z,97779.09
2023-03-16T15:20:27.637Z,97780.94
2023-03-16T15:22:54.070Z,97769.19
2023-03-16T15:25:20.626Z,97773.75
2023-03-16T15:27:46.931Z,97772.94
2023-03-16T15:30:13.450Z,97772.09
2023-03-16T15:32:40.190Z,97770.25
2023-03-16T15:35:06.790Z,97760.63
2023-03-16T15:37:37.245Z,97760.63
2023-03-16T15:40:03.732Z,97759.84
2023-03-16T15:42:32.058Z,97760.63
2023-03-16T15:44:59.145Z,97762.25
2023-03-16T15:47:26.003Z,97745.44
2023-03-16T15:49:52.452Z,97748.09
2023-03-16T15:52:31.811Z,97752.63
2023-03-16T15:54:58.218Z,97748.34
2023-03-16T15:57:24.728Z,97740.34
2023-03-16T15:59:57.014Z,97738.75
2023-03-16T16:02:23.410Z,97732.03
2023-03-16T16:04:49.774Z,97728.78
2023-03-16T16:07:16.322Z,97731.72
2023-03-16T16:09:42.663Z,97738.34
2023-03-16T16:12:09.066Z,97741.00
2023-03-16T16:14:35.510Z,97742.63
2023-03-16T16:17:05.086Z,97746.44
2023-03-16T16:19:31.860Z,97733.63
2023-03-16T16:21:58.170Z,97732.34
2023-03-16T16:24:24.578Z,97732.09
2023-03-16T16:26:54.689Z,97728.13
2023-03-16T16:29:21.959Z,97726.81
2023-03-16T16:31:48.675Z,97721.22
2023-03-16T16:34:15.059Z,97719.13
2023-03-16T16:36:41.668Z,97715.16
2023-03-16T16:39:08.602Z,97714.91
2023-03-16T16:41:35.015Z,97714.66
2023-03-16T16:44:01.391Z,97711.72
2023-03-16T16:46:27.690Z,97699.19
2023-03-16T16:48:54.138Z,97693.59
2023-03-16T16:51:20.472Z,97697.91
2023-03-16T16:53:47.085Z,97698.44
2023-03-16T16:56:13.439Z,97700.63
2023-03-16T16:58:39.762Z,97690.47
2023-03-16T17:01:06.402Z,97685.13
2023-03-16T17:03:32.757Z,97687.31
2023-03-16T17:05:59.142Z,97683.59
2023-03-16T17:08:25.580Z,97693.22
2023-03-16T17:10:52.433Z,97689.50
2023-03-16T17:13:18.878Z,97692.16
2023-03-16T17:15:45.260Z,97678.19
2023-03-16T17:18:11.693Z,97686.56
2023-03-16T17:20:38.052Z,97686.56
2023-03-16T17:23:04.411Z,97679.63
2023-03-16T17:25:31.231Z,97681.47
2023-03-16T17:27:57.971Z,97672.66
2023-03-16T17:30:24.309Z,97668.66
2023-03-16T17:32:50.677Z,97673.16
2023-03-16T17:35:17.036Z,97677.94
2023-03-16T17:37:43.510Z,97682.72
2023-03-16T17:40:09.827Z,97680.31
2023-03-16T17:42:36.098Z,97679.75
2023-03-16T17:45:02.747Z,97684.56
2023-03-16T17:47:29.437Z,97681.31
2023-03-16T17:49:55.980Z,97680.75
2023-03-16T17:52:22.712Z,97682.88
2023-03-16T17:54:49.378Z,97680.72
2023-03-16T17:57:15.657Z,97677.47
2023-03-16T17:59:42.256Z,97676.38
2023-03-16T18:02:08.669Z,97685.44
2023-03-16T18:04:35.035Z,97660.25
2023-03-16T18:07:01.416Z,97675.25
2023-03-16T18:09:28.493Z,97665.88
2023-03-16T18:11:54.894Z,97671.47
2023-03-16T18:14:21.208Z,97668.00
2023-03-16T18:16:47.726Z,97668.25
2023-03-16T18:19:14.037Z,97666.41
2023-03-16T18:21:40.487Z,97671.47
2023-03-16T18:24:06.907Z,97666.41
2023-03-16T18:26:33.219Z,97665.59
2023-03-16T18:28:59.685Z,97662.34
2023-03-16T18:31:26.046Z,97667.69
2023-03-16T18:33:52.555Z,97666.88
2023-03-16T18:36:18.984Z,97667.34
2023-03-16T18:38:45.538Z,97668.16
2023-03-16T18:41:12.001Z,97671.88
2023-03-16T18:43:38.418Z,97675.34
2023-03-16T18:46:04.767Z,97679.66
2023-03-16T18:48:31.180Z,97669.75
2023-03-16T18:50:57.554Z,97670.63
2023-03-16T18:53:24.359Z,97678.34
2023-03-16T18:55:50.666Z,97669.31
2023-03-16T18:58:20.053Z,97670.91
2023-03-16T19:00:47.194Z,97663.72
2023-03-16T19:03:13.689Z,97660.25
2023-03-16T19:05:40.086Z,97660.25
2023-03-16T19:08:06.459Z,97658.41
2023-03-16T19:10:32.751Z,97659.19
2023-03-16T19:12:59.099Z,97656.50
2023-03-16T19:15:25.465Z,97651.75
2023-03-16T19:17:51.892Z,97652.56
2023-03-16T19:20:18.191Z,97655.78
2023-03-16T19:22:44.605Z,97654.97
2023-03-16T19:25:11.069Z,97646.97
2023-03-16T19:27:37.426Z,97654.97
2023-03-16T19:30:03.731Z,97657.63
2023-03-16T19:32:30.125Z,97654.97
2023-03-16T19:34:56.476Z,97652.28
2023-03-16T19:37:22.885Z,97656.81
2023-03-16T19:39:49.289Z,97653.59
2023-03-16T19:42:15.564Z,97653.59
2023-03-16T19:44:41.909Z,97652.28
2023-03-16T19:47:08.263Z,97657.38
2023-03-16T19:49:34.728Z,97658.03
2023-03-16T19:52:01.413Z,97647.28
2023-03-16T19:54:27.783Z,97651.72
2023-03-16T19:56:54.180Z,97651.88
2023-03-16T19:59:20.524Z,97652.31
2023-03-16T20:01:46.922Z,97653.78
2023-03-16T20:04:13.341Z,97654.69
2023-03-16T20:06:42.488Z,97658.28
2023-03-16T20:09:08.814Z,97652.47
2023-03-16T20:11:35.170Z,97646.38
2023-03-16T20:14:01.753Z,97637.31
2023-03-16T20:16:28.221Z,97646.75
2023-03-16T20:18:54.531Z,97638.75
2023-03-16T20:21:20.967Z,97640.34
2023-03-16T20:23:47.310Z,97633.41
2023-03-16T20:26:13.688Z,97629.16
2023-03-16T20:28:40.057Z,97627.06
2023-03-16T20:31:06.381Z,97617.72
2023-03-16T20:33:32.720Z,97616.38
2023-03-16T20:35:59.470Z,97620.13
2023-03-16T20:38:25.970Z,97621.50
2023-03-16T20:40:52.308Z,97614.78
2023-03-16T20:43:18.758Z,97621.00
2023-03-16T20:45:45.158Z,97626.63
2023-03-16T20:48:11.457Z,97632.00
2023-03-16T20:50:37.743Z,97627.97
2023-03-16T20:53:04.037Z,97616.44
2023-03-16T20:55:30.557Z,97617.53
2023-03-16T20:57:57.010Z,97604.69
2023-03-16T21:00:23.398Z,97597.16
2023-03-16T21:02:49.749Z,97606.00
2023-03-16T21:05:16.182Z,97599.81
2023-03-16T21:07:42.732Z,97605.16
2023-03-16T21:10:09.126Z,97602.47
2023-03-16T21:12:35.818Z,97606.47
2023-03-16T21:15:02.126Z,97602.22
2023-03-16T21:17:28.693Z,97599.75
2023-03-16T21:19:55.447Z,97605.13
2023-03-16T21:22:21.962Z,97604.56
2023-03-16T21:24:48.433Z,97592.25
2023-03-16T21:27:14.830Z,97596.50
2023-03-16T21:29:41.183Z,97589.00
2023-03-16T21:32:07.532Z,97597.00
2023-03-16T21:34:33.966Z,97582.56
2023-03-16T21:37:00.391Z,97584.69
2023-03-16T21:39:26.914Z,97584.13
2023-03-16T21:41:53.229Z,97583.59
2023-03-16T21:44:19.673Z,97574.47
2023-03-16T21:46:46.162Z,97576.06
2023-03-16T21:49:12.727Z,97573.34
2023-03-16T21:51:39.190Z,97570.41
2023-03-16T21:54:07.762Z,97566.63
2023-03-16T21:56:34.251Z,97564.75
2023-03-16T21:59:00.598Z,97568.19
2023-03-16T22:01:26.946Z,97566.06
2023-03-16T22:03:53.454Z,97562.53
2023-03-16T22:06:19.766Z,97553.19
2023-03-16T22:08:46.603Z,97557.44
2023-03-16T22:11:13.506Z,97549.13
2023-03-16T22:13:39.770Z,97553.13
2023-03-16T22:16:06.315Z,97545.91
2023-03-16T22:18:33.063Z,97543.75
2023-03-16T22:20:59.574Z,97541.56
2023-03-16T22:23:25.917Z,97542.09
2023-03-16T22:25:52.628Z,97541.00
2023-03-16T22:28:18.963Z,97545.28
2023-03-16T22:30:45.292Z,97536.97
2023-03-16T22:33:11.631Z,97538.28
2023-03-16T22:35:38.068Z,97541.47
2023-03-16T22:38:04.543Z,97525.97
2023-03-16T22:40:30.963Z,97524.63
2023-03-16T22:42:57.365Z,97513.59
2023-03-16T22:45:23.751Z,97515.72
2023-03-16T22:47:50.145Z,97517.06
2023-03-16T22:50:16.466Z,97509.53
2023-03-16T22:52:42.831Z,97519.94
2023-03-16T22:55:09.117Z,97520.97
2023-03-16T22:57:35.838Z,97524.94
2023-03-16T23:00:02.175Z,97519.53
2023-03-16T23:02:28.623Z,97525.06
2023-03-16T23:04:55.119Z,97511.84
2023-03-16T23:07:21.426Z,97509.13
2023-03-16T23:09:47.748Z,97509.03
2023-03-16T23:12:14.146Z,97515.03
2023-03-16T23:14:40.415Z,97496.84
2023-03-16T23:17:06.737Z,97495.69
2023-03-16T23:19:33.073Z,97498.81
2023-03-16T23:21:59.385Z,97493.13
2023-03-16T23:24:25.757Z,97482.09
2023-03-16T23:26:52.139Z,97475.63
2023-03-16T23:29:18.575Z,97468.84
2023-03-16T23:31:44.880Z,97472.75
2023-03-16T23:34:11.236Z,97478.53
2023-03-16T23:36:37.554Z,97481.63
2023-03-16T23:39:03.832Z,97487.41
2023-03-16T23:41:30.166Z,97484.91
2023-03-16T23:43:56.446Z,97483.47
2023-03-16T23:46:22.840Z,97487.13
2023-03-16T23:48:49.314Z,97489.94
2023-03-16T23:51:15.636Z,97480.53
2023-03-16T23:53:41.984Z,97478.84
2023-03-16T23:56:08.325Z,97480.88
2023-03-16T23:58:34.720Z,97482.66
